createdAt,value
2023-04-20T00:02:39.862Z,98.68
2023-04-20T00:07:41.962Z,98.57
2023-04-20T00:12:43.733Z,98.56
2023-04-20T00:17:46.586Z,98.91
2023-04-20T00:22:48.462Z,99.20
2023-04-20T00:27:50.362Z,99.01
2023-04-20T00:32:52.157Z,98.93
2023-04-20T00:37:53.947Z,98.56
2023-04-20T00:42:55.779Z,98.21
2023-04-20T00:47:58.586Z,98.07
2023-04-20T00:53:03.290Z,97.84
2023-04-20T00:58:06.402Z,97.46
2023-04-20T01:03:08.909Z,97.51
2023-04-20T01:08:11.246Z,97.38
2023-04-20T01:13:12.954Z,97.37
2023-04-20T01:18:15.409Z,97.49
2023-04-20T01:23:17.123Z,97.51
2023-04-20T01:28:19.502Z,97.40
2023-04-20T01:33:21.218Z,97.61
2023-04-20T01:38:27.052Z,97.85
2023-04-20T01:43:28.932Z,98.26
2023-04-20T01:48:31.001Z,97.95
2023-04-20T01:53:32.668Z,98.60
2023-04-20T01:58:34.517Z,98.93
2023-04-20T02:03:36.411Z,98.93
2023-04-20T02:08:38.668Z,99.15
2023-04-20T02:13:42.664Z,99.04
2023-04-20T02:18:46.020Z,99.60
2023-04-20T02:23:48.114Z,99.32
2023-04-20T02:28:49.879Z,99.62
2023-04-20T02:33:51.651Z,99.92
2023-04-20T02:38:54.142Z,99.51
2023-04-20T02:43:55.885Z,99.30
2023-04-20T02:48:57.796Z,99.33
2023-04-20T02:53:59.982Z,99.43
2023-04-20T02:59:03.803Z,99.37
2023-04-20T03:04:18.200Z,99.44
2023-04-20T03:09:37.500Z,99.07
2023-04-20T03:14:51.832Z,99.07
2023-04-20T03:19:56.688Z,98.92
2023-04-20T03:24:59.246Z,98.69
2023-04-20T03:30:24.091Z,98.35
2023-04-20T03:35:31.659Z,98.43
2023-04-20T03:40:33.527Z,98.43
2023-04-20T03:45:35.269Z,97.94
2023-04-20T03:50:37.041Z,97.58
2023-04-20T03:55:39.875Z,97.87
2023-04-20T04:00:43.826Z,98.25
2023-04-20T04:07:11.211Z,98.13
2023-04-20T04:12:13.977Z,98.09
2023-04-20T04:17:15.884Z,98.17
2023-04-20T04:22:17.924Z,98.06
2023-04-20T04:27:35.042Z,97.97
2023-04-20T04:32:37.614Z,97.10
2023-04-20T04:37:40.423Z,96.58
2023-04-20T04:42:42.436Z,96.75
2023-04-20T04:47:44.766Z,96.98
2023-04-20T04:52:46.499Z,95.34
2023-04-20T04:57:48.271Z,94.24
2023-04-20T05:02:50.054Z,93.76
2023-04-20T05:07:51.904Z,93.03
2023-04-20T05:12:53.750Z,91.37
2023-04-20T05:17:55.578Z,89.02
2023-04-20T05:22:57.466Z,87.58
2023-04-20T05:27:59.577Z,84.04
2023-04-20T05:33:01.457Z,80.62
2023-04-20T05:38:06.360Z,80.37
2023-04-20T05:43:08.699Z,80.51
2023-04-20T05:48:10.911Z,79.56
2023-04-20T05:53:12.671Z,80.76
2023-04-20T05:58:15.440Z,79.87
2023-04-20T06:03:17.624Z,79.76
2023-04-20T06:08:19.516Z,80.60
2023-04-20T06:13:21.615Z,77.02
2023-04-20T06:18:23.371Z,75.60
2023-04-20T06:23:25.214Z,74.45
2023-04-20T06:28:27.007Z,71.44
2023-04-20T06:33:28.830Z,71.64
2023-04-20T06:38:30.793Z,71.54
2023-04-20T06:43:32.516Z,69.89
2023-04-20T06:48:35.164Z,68.15
2023-04-20T06:53:37.025Z,68.30
2023-04-20T06:58:38.686Z,68.08
2023-04-20T07:03:40.535Z,67.58
2023-04-20T07:08:42.712Z,66.51
2023-04-20T07:13:44.362Z,66.01
2023-04-20T07:18:47.465Z,65.70
2023-04-20T07:23:50.378Z,65.48
2023-04-20T07:29:00.348Z,64.48
2023-04-20T07:34:02.152Z,62.51
2023-04-20T07:39:05.301Z,64.07
2023-04-20T07:44:07.073Z,65.45
2023-04-20T07:49:08.810Z,64.78
2023-04-20T07:54:10.481Z,63.41
2023-04-20T07:59:12.309Z,62.88
2023-04-20T08:04:14.366Z,63.27
2023-04-20T08:09:16.411Z,60.12
2023-04-20T08:14:18.590Z,60.93
2023-04-20T08:19:20.667Z,61.62
2023-04-20T08:24:22.650Z,61.04
2023-04-20T08:29:24.668Z,57.78
2023-04-20T08:34:26.399Z,57.89
2023-04-20T08:39:28.155Z,55.78
2023-04-20T08:44:29.962Z,56.26
2023-04-20T08:49:33.043Z,56.24
2023-04-20T08:54:35.325Z,56.19
2023-04-20T08:59:39.168Z,56.02
2023-04-20T09:04:41.294Z,56.00
2023-04-20T09:09:57.121Z,54.53
2023-04-20T09:14:58.802Z,54.10
2023-04-20T09:20:01.065Z,50.34
2023-04-20T09:25:32.366Z,47.69
2023-04-20T09:30:42.036Z,47.72
2023-04-20T09:35:45.697Z,47.47
2023-04-20T09:40:47.889Z,46.83
2023-04-20T09:45:50.565Z,47.14
2023-04-20T09:50:52.876Z,47.90
2023-04-20T09:55:54.726Z,47.25
2023-04-20T10:00:56.546Z,45.53
2023-04-20T10:05:58.362Z,44.03
2023-04-20T10:11:00.082Z,45.29
2023-04-20T10:16:01.881Z,44.70
2023-04-20T10:21:09.773Z,43.73
2023-04-20T10:26:12.014Z,42.79
2023-04-20T10:31:15.473Z,43.81
2023-04-20T10:36:27.920Z,45.35
2023-04-20T10:41:29.625Z,46.50
2023-04-20T10:46:31.622Z,47.34
2023-04-20T10:51:33.447Z,49.25
2023-04-20T10:56:49.837Z,49.07
2023-04-20T11:02:01.596Z,48.00
2023-04-20T11:07:09.013Z,47.57
2023-04-20T11:12:16.116Z,48.35
2023-04-20T11:17:18.055Z,48.50
2023-04-20T11:22:23.501Z,50.47
2023-04-20T11:27:25.225Z,50.31
2023-04-20T11:32:27.158Z,48.28
2023-04-20T11:37:29.684Z,48.16
2023-04-20T11:42:31.394Z,49.01
2023-04-20T11:47:33.243Z,50.82
2023-04-20T11:52:35.008Z,52.47
2023-04-20T11:57:36.763Z,52.78
2023-04-20T12:02:38.701Z,52.71
2023-04-20T12:07:40.677Z,51.39
2023-04-20T12:12:42.446Z,49.19
2023-04-20T12:17:44.500Z,47.96
2023-04-20T12:22:46.265Z,44.39
2023-04-20T12:27:49.826Z,42.59
2023-04-20T12:32:51.907Z,42.02
2023-04-20T12:37:53.623Z,42.41
2023-04-20T12:42:55.331Z,42.85
2023-04-20T12:48:00.313Z,42.42
2023-04-20T12:53:02.405Z,42.06
2023-04-20T12:58:04.141Z,45.63
2023-04-20T13:03:05.942Z,48.91
2023-04-20T13:08:07.886Z,50.24
2023-04-20T13:13:11.383Z,50.94
2023-04-20T13:18:15.265Z,50.89
2023-04-20T13:23:17.075Z,49.60
2023-04-20T13:28:19.872Z,46.82
2023-04-20T13:33:21.625Z,45.78
2023-04-20T13:38:23.326Z,43.54
2023-04-20T13:43:25.843Z,45.42
2023-04-20T13:48:27.527Z,46.57
2023-04-20T13:53:29.331Z,44.97
2023-04-20T13:58:31.108Z,44.43
2023-04-20T14:03:32.995Z,41.78
2023-04-20T14:08:34.811Z,39.96
2023-04-20T14:13:37.645Z,39.67
2023-04-20T14:18:39.445Z,38.53
2023-04-20T14:23:41.229Z,37.21
2023-04-20T14:28:42.990Z,36.89
2023-04-20T14:33:44.947Z,36.99
2023-04-20T14:38:46.659Z,39.02
2023-04-20T14:43:48.761Z,40.89
2023-04-20T14:48:50.552Z,41.59
2023-04-20T14:53:52.318Z,40.23
2023-04-20T14:58:54.041Z,40.06
2023-04-20T15:03:56.079Z,38.52
2023-04-20T15:08:58.729Z,36.78
2023-04-20T15:14:00.649Z,37.32
2023-04-20T15:19:02.360Z,37.46
2023-04-20T15:24:04.458Z,37.39
2023-04-20T15:29:06.477Z,39.24
2023-04-20T15:34:08.184Z,39.06
2023-04-20T15:39:09.917Z,38.16
2023-04-20T15:44:12.961Z,37.18
2023-04-20T15:49:15.217Z,36.53
2023-04-20T15:54:17.155Z,36.53
2023-04-20T15:59:19.342Z,38.18
2023-04-20T16:04:21.398Z,39.36
2023-04-20T16:09:23.962Z,40.81
2023-04-20T16:14:25.856Z,39.50
2023-04-20T16:19:27.842Z,39.58
2023-04-20T16:24:29.514Z,40.23
2023-04-20T16:29:31.401Z,40.04
2023-04-20T16:34:33.236Z,40.13
2023-04-20T16:39:35.335Z,39.40
2023-04-20T16:44:37.297Z,40.16
2023-04-20T16:49:39.538Z,39.53
2023-04-20T16:54:41.820Z,40.84
2023-04-20T16:59:45.287Z,41.52
2023-04-20T17:04:47.511Z,42.37
2023-04-20T17:09:49.149Z,43.41
2023-04-20T17:14:51.201Z,45.36
2023-04-20T17:19:52.899Z,48.07
2023-04-20T17:24:54.644Z,50.07
2023-04-20T17:29:56.431Z,51.31
2023-04-20T17:34:58.764Z,52.87
2023-04-20T17:40:01.599Z,54.88
2023-04-20T17:45:03.768Z,56.15
2023-04-20T17:50:06.630Z,57.05
2023-04-20T17:55:20.725Z,57.95
2023-04-20T18:00:23.594Z,59.07
2023-04-20T18:05:25.337Z,59.90
2023-04-20T18:10:27.263Z,60.76
2023-04-20T18:15:29.000Z,61.66
2023-04-20T18:20:32.365Z,62.14
2023-04-20T18:25:34.348Z,62.50
2023-04-20T18:30:36.277Z,62.63
2023-04-20T18:35:38.039Z,63.47
2023-04-20T18:40:39.715Z,64.20
2023-04-20T18:45:41.528Z,64.27
2023-04-20T18:50:43.795Z,64.55
2023-04-20T18:55:46.604Z,64.94
2023-04-20T19:00:49.189Z,65.50
2023-04-20T19:05:50.999Z,66.24
2023-04-20T19:10:56.560Z,66.74
2023-04-20T19:15:58.251Z,67.38
2023-04-20T19:21:00.013Z,67.67
2023-04-20T19:26:02.160Z,68.57
2023-04-20T19:31:04.142Z,69.38
2023-04-20T19:36:08.747Z,69.68
2023-04-20T19:41:10.656Z,69.85
2023-04-20T19:46:15.227Z,70.00
2023-04-20T19:51:19.314Z,70.77
2023-04-20T19:56:21.305Z,71.69
2023-04-20T20:01:23.078Z,73.09
2023-04-20T20:06:24.972Z,73.96
2023-04-20T20:11:27.582Z,74.35
2023-04-20T20:16:29.494Z,74.87
2023-04-20T20:21:31.678Z,75.36
2023-04-20T20:26:33.404Z,77.24
2023-04-20T20:31:35.361Z,78.60
2023-04-20T20:36:37.216Z,79.03
2023-04-20T20:41:42.867Z,79.17
2023-04-20T20:46:44.701Z,79.25
2023-04-20T20:51:46.640Z,79.06
2023-04-20T20:56:48.504Z,78.32
2023-04-20T21:01:50.644Z,77.52
2023-04-20T21:06:52.552Z,77.15
2023-04-20T21:11:57.672Z,77.96
2023-04-20T21:17:02.091Z,78.37
2023-04-20T21:22:05.424Z,78.35
2023-04-20T21:27:07.379Z,78.24
2023-04-20T21:32:10.720Z,78.63
2023-04-20T21:37:12.869Z,80.12
2023-04-20T21:42:16.061Z,80.16
2023-04-20T21:47:18.414Z,78.98
2023-04-20T21:52:24.026Z,78.74
2023-04-20T21:57:25.847Z,80.77
2023-04-20T22:02:27.668Z,80.35
2023-04-20T22:07:30.404Z,81.40
2023-04-20T22:12:39.167Z,79.97
2023-04-20T22:17:45.443Z,79.48
2023-04-20T22:22:47.255Z,79.25
2023-04-20T22:27:48.939Z,79.08
2023-04-20T22:32:50.886Z,80.01
2023-04-20T22:37:52.694Z,81.22
2023-04-20T22:42:54.357Z,81.54
2023-04-20T22:47:56.142Z,82.33
2023-04-20T22:52:57.889Z,83.49
2023-04-20T22:57:59.611Z,83.87
2023-04-20T23:03:01.486Z,83.91
2023-04-20T23:08:04.649Z,83.73
2023-04-20T23:13:16.837Z,84.01
2023-04-20T23:18:18.543Z,84.43
2023-04-20T23:23:20.295Z,83.12
2023-04-20T23:28:22.187Z,82.13
2023-04-20T23:33:25.675Z,84.29
2023-04-20T23:38:27.476Z,85.29
2023-04-20T23:43:29.710Z,86.71
2023-04-20T23:48:34.320Z,86.83
2023-04-20T23:53:39.175Z,86.24
2023-04-20T23:58:41.078Z,83.26
